KRBG

Roseburg Regional Airport

Roseburg, Oregon, USA
METAR KRBG 181253Z AUTO 18007G14KT 3SM RA BKN048 OVC070 13/09 A2990 RMK AO2 SLP125 P0005 T01280089
Observed Flight Rules
Dec-18 @ 12:53 UTC (20 minutes ago) Marginal Visual Flight Rules
Wind Visibility Clouds Conditions
180° at 7 knots
 Gusting to 14 knots
3 miles
  • Broken at 4,800' AGL
  • Overcast at 7,000' AGL
  • Rain
Temperatures Readings Precipitation
Current 13°C / 55°F
Dewpoint 9°C / 48°F
Humidity 77%
Altimeter 29.9" Hg
Pressure 1012.5 hPa
Elevation 154
Current Rain 0.05
METAR KRBG 181253Z AUTO 18007G14KT 3SM RA BKN048 OVC070 13/09 A2990 RMK AO2 SLP125 P0005 T01280089
Observed Flight Rules
Dec-18 @ 12:53 UTC
(20 minutes ago)
MVFR
Wind Visibility
180° at 7 knots
 Gusting to 14 knots
3 miles
Clouds
  • Broken at 4,800' AGL
  • Overcast at 7,000' AGL
Conditions
  • Rain
Temperature Dewpoint
13°C / 55°F 9°C / 48°F
Humidity Altimeter Pressure
77% 29.9" Hg 1012.5 hPa
Current Rain
0.05